createdAt,value
2022-11-02T00:01:20.520Z,12.15
2022-11-02T00:03:48.451Z,7.55
2022-11-02T00:06:15.838Z,8.80
2022-11-02T00:08:43.181Z,9.93
2022-11-02T00:11:10.718Z,7.38
2022-11-02T00:13:38.367Z,8.65
2022-11-02T00:16:09.692Z,4.80
2022-11-02T00:18:38.120Z,7.55
2022-11-02T00:21:06.023Z,6.55
2022-11-02T00:23:33.957Z,6.13
2022-11-02T00:26:02.827Z,6.13
2022-11-02T00:28:31.268Z,9.35
2022-11-02T00:30:58.728Z,9.20
2022-11-02T00:33:26.866Z,7.18
2022-11-02T00:35:55.333Z,7.22
2022-11-02T00:38:22.717Z,6.03
2022-11-02T00:40:50.109Z,4.68
2022-11-02T00:43:17.537Z,5.93
2022-11-02T00:45:44.909Z,7.15
2022-11-02T00:48:12.252Z,6.00
2022-11-02T00:50:39.609Z,4.60
2022-11-02T00:53:06.934Z,4.47
2022-11-02T00:55:34.308Z,11.45
2022-11-02T00:58:02.070Z,6.95
2022-11-02T01:00:30.070Z,6.00
2022-11-02T01:03:01.616Z,6.50
2022-11-02T01:05:29.928Z,6.55
2022-11-02T01:07:58.519Z,4.30
2022-11-02T01:10:28.578Z,3.83
2022-11-02T01:12:55.948Z,6.18
2022-11-02T01:15:23.322Z,7.22
2022-11-02T01:17:50.786Z,7.25
2022-11-02T01:20:18.468Z,5.63
2022-11-02T01:22:45.824Z,6.90
2022-11-02T01:25:13.184Z,8.13
2022-11-02T01:27:40.575Z,5.50
2022-11-02T01:30:08.361Z,7.57
2022-11-02T01:32:35.738Z,2.90
2022-11-02T01:35:03.266Z,5.18
2022-11-02T01:37:30.781Z,10.45
2022-11-02T01:39:58.120Z,6.72
2022-11-02T01:42:28.319Z,5.40
2022-11-02T01:44:55.666Z,3.33
2022-11-02T01:47:28.255Z,6.97
2022-11-02T01:50:02.664Z,5.43
2022-11-02T01:52:34.884Z,12.02
2022-11-02T01:55:12.838Z,10.18
2022-11-02T01:57:43.576Z,5.47
2022-11-02T02:00:13.653Z,6.22
2022-11-02T02:02:53.949Z,6.90
2022-11-02T02:05:23.836Z,5.73
2022-11-02T02:07:52.498Z,6.03
2022-11-02T02:10:19.944Z,12.13
2022-11-02T02:12:48.045Z,4.00
2022-11-02T02:15:15.810Z,7.38
2022-11-02T02:18:05.485Z,6.18
2022-11-02T02:20:32.944Z,14.45
2022-11-02T02:23:01.394Z,5.70
2022-11-02T02:25:46.618Z,8.85
2022-11-02T02:28:22.350Z,9.65
2022-11-02T02:31:09.585Z,12.18
2022-11-02T02:33:42.934Z,6.35
2022-11-02T02:36:24.530Z,8.10
2022-11-02T02:39:01.053Z,6.63
2022-11-02T02:41:39.510Z,9.48
2022-11-02T02:44:22.071Z,4.25
2022-11-02T02:47:15.107Z,8.13
2022-11-02T02:49:52.564Z,12.73
2022-11-02T02:52:21.810Z,7.18
2022-11-02T02:54:52.373Z,10.40
2022-11-02T02:57:23.795Z,6.15
2022-11-02T02:59:51.313Z,9.60
2022-11-02T03:02:34.030Z,6.80
2022-11-02T03:05:01.544Z,9.45
2022-11-02T03:07:39.138Z,9.20
2022-11-02T03:10:16.783Z,7.22
2022-11-02T03:13:07.200Z,10.00
2022-11-02T03:15:47.004Z,7.23
2022-11-02T03:18:36.460Z,10.88
2022-11-02T03:21:20.053Z,8.15
2022-11-02T03:23:55.231Z,9.18
2022-11-02T03:26:36.789Z,5.30
2022-11-02T03:29:09.390Z,6.70
2022-11-02T03:31:54.993Z,11.27
2022-11-02T03:34:32.684Z,10.10
2022-11-02T03:37:06.106Z,6.55
2022-11-02T03:39:42.028Z,15.77
2022-11-02T03:42:13.133Z,11.93
2022-11-02T03:47:12.431Z,11.02
2022-11-02T03:52:13.049Z,13.32
2022-11-02T03:55:08.015Z,9.57
2022-11-02T03:57:46.334Z,10.57
2022-11-02T04:00:19.601Z,5.20
2022-11-02T04:02:53.398Z,9.15
2022-11-02T04:05:26.923Z,9.35
2022-11-02T04:08:14.637Z,7.75
2022-11-02T04:11:02.255Z,9.27
2022-11-02T04:13:48.480Z,11.02
2022-11-02T04:16:16.261Z,7.75
2022-11-02T04:19:02.661Z,14.25
2022-11-02T04:21:30.464Z,15.07
2022-11-02T04:24:16.875Z,12.02
2022-11-02T04:26:44.267Z,13.43
2022-11-02T04:29:11.643Z,6.97
2022-11-02T04:31:38.980Z,14.63
2022-11-02T04:34:06.341Z,16.73
2022-11-02T04:36:33.791Z,12.70
2022-11-02T04:39:01.217Z,9.82
2022-11-02T04:41:49.215Z,14.55
2022-11-02T04:44:17.139Z,16.55
2022-11-02T04:46:45.552Z,11.02
2022-11-02T04:49:14.339Z,13.55
2022-11-02T04:51:47.216Z,11.05
2022-11-02T04:54:16.226Z,10.70
2022-11-02T04:56:43.553Z,11.80
2022-11-02T04:59:11.422Z,12.05
2022-11-02T05:01:38.949Z,8.82
2022-11-02T05:04:06.376Z,7.13
2022-11-02T05:06:33.718Z,14.20
2022-11-02T05:09:01.031Z,13.48
2022-11-02T05:11:28.392Z,17.08
2022-11-02T05:13:55.743Z,15.50
2022-11-02T05:16:23.119Z,16.63
2022-11-02T05:18:50.424Z,15.45
2022-11-02T05:21:17.824Z,12.82
2022-11-02T05:23:45.383Z,10.98
2022-11-02T05:26:13.087Z,16.88
2022-11-02T05:28:40.690Z,12.50
2022-11-02T05:31:08.130Z,20.42
2022-11-02T05:33:35.738Z,16.02
2022-11-02T05:36:03.615Z,13.52
2022-11-02T05:38:31.061Z,10.68
2022-11-02T05:40:59.727Z,11.90
2022-11-02T05:43:27.816Z,12.52
2022-11-02T05:45:56.647Z,10.40
2022-11-02T05:48:25.498Z,12.95
2022-11-02T05:51:01.959Z,9.82
2022-11-02T05:53:32.644Z,17.80
2022-11-02T05:56:01.566Z,9.80
2022-11-02T05:58:29.336Z,12.68
2022-11-02T06:01:05.339Z,12.70
2022-11-02T06:03:33.166Z,13.43
2022-11-02T06:06:06.404Z,14.27
2022-11-02T06:08:38.551Z,15.45
2022-11-02T06:11:11.085Z,7.88
2022-11-02T06:13:39.459Z,16.45
2022-11-02T06:16:09.589Z,10.68
2022-11-02T06:18:38.290Z,19.38
2022-11-02T06:21:06.153Z,10.25
2022-11-02T06:23:33.760Z,13.00
2022-11-02T06:26:02.011Z,14.80
2022-11-02T06:28:30.894Z,17.00
2022-11-02T06:30:58.467Z,11.73
2022-11-02T06:33:26.384Z,15.68
2022-11-02T06:35:54.707Z,17.77
2022-11-02T06:38:22.681Z,12.80
2022-11-02T06:40:57.594Z,20.10
2022-11-02T06:43:25.752Z,15.75
2022-11-02T06:45:57.987Z,14.05
2022-11-02T06:48:33.060Z,13.88
2022-11-02T06:51:03.475Z,17.75
2022-11-02T06:53:31.176Z,9.80
2022-11-02T06:55:59.799Z,12.57
2022-11-02T06:58:27.820Z,10.35
2022-11-02T07:01:03.716Z,15.70
2022-11-02T07:03:31.629Z,8.57
2022-11-02T07:05:59.464Z,17.88
2022-11-02T07:08:27.871Z,18.63
2022-11-02T07:10:56.060Z,15.80
2022-11-02T07:13:23.451Z,9.82
2022-11-02T07:15:54.845Z,15.05
2022-11-02T07:18:23.091Z,10.73
2022-11-02T07:20:50.539Z,10.98
2022-11-02T07:23:18.011Z,8.02
2022-11-02T07:25:45.398Z,16.08
2022-11-02T07:28:12.751Z,12.20
2022-11-02T07:30:40.163Z,13.55
2022-11-02T07:33:07.782Z,7.47
2022-11-02T07:35:35.719Z,13.52
2022-11-02T07:38:05.498Z,17.85
2022-11-02T07:40:35.278Z,8.27
2022-11-02T07:43:03.236Z,14.63
2022-11-02T07:45:31.035Z,11.70
2022-11-02T07:47:58.369Z,10.60
2022-11-02T07:50:27.191Z,13.85
2022-11-02T07:52:57.076Z,10.98
2022-11-02T07:55:29.677Z,16.73
2022-11-02T07:58:01.546Z,13.60
2022-11-02T08:00:31.764Z,15.73
2022-11-02T08:03:01.048Z,13.03
2022-11-02T08:05:30.106Z,8.48
2022-11-02T08:08:02.644Z,16.85
2022-11-02T08:10:35.566Z,16.65
2022-11-02T08:13:07.579Z,10.32
2022-11-02T08:15:34.995Z,16.45
2022-11-02T08:18:16.369Z,10.93
2022-11-02T08:20:45.913Z,13.52
2022-11-02T08:23:15.684Z,17.40
2022-11-02T08:25:45.770Z,20.10
2022-11-02T08:28:16.603Z,20.83
2022-11-02T08:30:44.712Z,20.25
2022-11-02T08:33:15.518Z,22.08
2022-11-02T08:35:44.728Z,14.05
2022-11-02T08:38:12.750Z,18.17
2022-11-02T08:40:40.635Z,36.70
2022-11-02T08:43:12.717Z,14.18
2022-11-02T08:46:13.310Z,14.82
2022-11-02T08:48:29.747Z,10.85
2022-11-02T08:50:57.251Z,12.52
2022-11-02T08:53:24.657Z,19.65
2022-11-02T08:55:52.006Z,11.82
2022-11-02T08:58:19.414Z,14.02
2022-11-02T09:00:46.853Z,19.05
2022-11-02T09:03:15.641Z,17.35
2022-11-02T09:05:45.442Z,13.95
2022-11-02T09:08:18.217Z,16.10
2022-11-02T09:10:49.260Z,14.57
2022-11-02T09:13:20.769Z,12.20
2022-11-02T09:15:54.161Z,13.90
2022-11-02T09:18:22.771Z,14.10
2022-11-02T09:20:51.487Z,19.08
2022-11-02T09:23:21.064Z,14.85
2022-11-02T09:25:49.514Z,23.27
2022-11-02T09:28:16.812Z,9.55
2022-11-02T09:30:44.273Z,22.70
2022-11-02T09:33:11.975Z,19.25
2022-11-02T09:35:42.756Z,8.77
2022-11-02T09:38:10.203Z,15.40
2022-11-02T09:41:07.881Z,13.55
2022-11-02T09:43:57.976Z,14.13
2022-11-02T09:46:30.264Z,15.60
2022-11-02T09:49:01.459Z,7.95
2022-11-02T09:51:33.427Z,10.70
2022-11-02T09:54:13.133Z,17.63
2022-11-02T09:56:44.569Z,18.15
2022-11-02T09:59:24.162Z,18.10
2022-11-02T10:02:30.734Z,26.52
2022-11-02T10:04:58.139Z,16.48
2022-11-02T10:07:49.618Z,18.80
2022-11-02T10:10:26.288Z,14.20
2022-11-02T10:13:26.017Z,10.15
2022-11-02T10:16:00.408Z,20.85
2022-11-02T10:18:30.112Z,11.65
2022-11-02T10:21:00.308Z,11.40
2022-11-02T10:23:52.436Z,10.57
2022-11-02T10:26:32.782Z,16.92
2022-11-02T10:29:18.269Z,14.77
2022-11-02T10:31:46.057Z,15.98
2022-11-02T10:34:29.561Z,20.10
2022-11-02T10:37:21.428Z,10.77
2022-11-02T10:39:57.452Z,20.10
2022-11-02T10:42:51.784Z,16.40
2022-11-02T10:45:44.514Z,12.63
2022-11-02T10:48:34.312Z,10.73
2022-11-02T10:51:09.684Z,19.27
2022-11-02T10:53:42.064Z,11.73
2022-11-02T10:56:43.270Z,14.00
2022-11-02T10:59:16.254Z,16.90
2022-11-02T11:01:48.302Z,12.82
2022-11-02T11:04:42.598Z,12.70
2022-11-02T11:07:17.649Z,19.13
2022-11-02T11:09:54.018Z,13.98
2022-11-02T11:12:30.503Z,13.15
2022-11-02T11:20:38.194Z,15.85
2022-11-02T11:23:21.769Z,14.07
2022-11-02T11:26:06.567Z,16.20
2022-11-02T11:28:37.936Z,15.77
2022-11-02T11:31:12.326Z,14.38
2022-11-02T11:34:22.235Z,13.70
2022-11-02T11:36:49.754Z,18.48
2022-11-02T11:39:31.741Z,14.13
2022-11-02T11:41:59.771Z,17.92
2022-11-02T11:44:27.373Z,14.65
2022-11-02T11:46:58.077Z,10.18
2022-11-02T11:50:08.608Z,22.10
2022-11-02T11:52:31.719Z,12.93
2022-11-02T11:55:24.715Z,14.13
2022-11-02T11:58:24.246Z,9.50
2022-11-02T12:01:17.086Z,10.93
2022-11-02T12:04:00.414Z,12.30
2022-11-02T12:07:05.230Z,12.10
2022-11-02T12:09:36.971Z,14.27
2022-11-02T12:12:17.311Z,20.10
2022-11-02T12:15:16.603Z,16.40
2022-11-02T12:17:59.603Z,19.02
2022-11-02T12:20:50.769Z,15.07
2022-11-02T12:26:21.244Z,13.85
2022-11-02T12:28:54.456Z,14.90
2022-11-02T12:31:24.791Z,23.40
2022-11-02T12:34:06.183Z,20.77
2022-11-02T12:37:39.079Z,12.60
2022-11-02T12:40:06.499Z,13.75
2022-11-02T12:42:40.616Z,21.08
2022-11-02T12:45:22.386Z,22.20
2022-11-02T12:48:00.199Z,17.45
2022-11-02T12:50:33.175Z,20.83
2022-11-02T12:53:36.955Z,12.80
2022-11-02T12:56:08.029Z,12.88
2022-11-02T12:58:38.779Z,11.75
2022-11-02T13:01:21.030Z,18.95
2022-11-02T13:04:10.907Z,17.35
2022-11-02T13:06:44.074Z,14.50
2022-11-02T13:09:34.624Z,16.42
2022-11-02T13:12:14.644Z,15.60
2022-11-02T13:14:47.718Z,11.65
2022-11-02T13:17:40.046Z,19.80
2022-11-02T13:20:16.797Z,17.55
2022-11-02T13:22:47.799Z,19.70
2022-11-02T13:28:13.699Z,21.48
2022-11-02T13:30:43.496Z,11.82
2022-11-02T13:33:43.420Z,16.88
2022-11-02T13:36:11.495Z,14.75
2022-11-02T13:38:49.324Z,16.73
2022-11-02T13:41:32.660Z,19.77
2022-11-02T13:44:01.283Z,23.85
2022-11-02T13:46:59.660Z,13.32
2022-11-02T13:49:40.398Z,12.02
2022-11-02T13:52:22.019Z,23.13
2022-11-02T13:57:36.500Z,24.00
2022-11-02T14:00:21.192Z,24.17
2022-11-02T14:03:13.579Z,18.42
2022-11-02T14:05:46.261Z,17.48
2022-11-02T14:08:22.559Z,21.15
2022-11-02T14:11:04.820Z,15.20
2022-11-02T14:13:53.840Z,25.20
2022-11-02T14:16:53.614Z,18.98
2022-11-02T14:19:22.331Z,18.45
2022-11-02T14:21:53.231Z,14.13
2022-11-02T14:24:38.259Z,24.20
2022-11-02T14:27:25.539Z,28.52
2022-11-02T14:29:54.863Z,22.33
2022-11-02T14:32:42.522Z,18.80
2022-11-02T14:35:27.940Z,19.92
2022-11-02T14:38:04.678Z,30.08
2022-11-02T14:40:59.451Z,18.08
2022-11-02T14:43:47.750Z,18.52
2022-11-02T14:46:38.790Z,20.92
2022-11-02T14:49:15.370Z,29.60
2022-11-02T14:51:55.866Z,16.42
2022-11-02T14:54:25.352Z,23.75
2022-11-02T14:57:06.413Z,27.45
2022-11-02T14:59:37.133Z,21.95
2022-11-02T15:02:05.674Z,24.20
2022-11-02T15:04:35.529Z,26.02
2022-11-02T15:07:05.596Z,16.63
2022-11-02T15:09:53.171Z,18.65
2022-11-02T15:12:39.478Z,21.83
2022-11-02T15:15:28.382Z,20.35
2022-11-02T15:18:00.190Z,15.93
2022-11-02T15:20:33.062Z,28.58
2022-11-02T15:23:21.131Z,17.38
2022-11-02T15:25:56.998Z,16.27
2022-11-02T15:28:27.767Z,21.90
2022-11-02T15:30:59.602Z,17.48
2022-11-02T15:33:35.939Z,23.95
2022-11-02T15:36:06.536Z,23.17
2022-11-02T15:38:39.714Z,24.55
2022-11-02T15:41:39.749Z,20.10
2022-11-02T15:44:22.698Z,23.00
2022-11-02T15:47:28.203Z,16.48
2022-11-02T15:50:01.375Z,19.42
2022-11-02T15:53:21.210Z,20.88
2022-11-02T15:55:48.338Z,22.63
2022-11-02T15:58:41.418Z,16.83
2022-11-02T16:01:24.920Z,19.10
2022-11-02T16:04:04.145Z,18.83
2022-11-02T16:06:41.539Z,17.48
2022-11-02T16:09:30.911Z,21.88
2022-11-02T16:12:21.772Z,23.40
2022-11-02T16:15:18.322Z,19.10
2022-11-02T16:17:52.828Z,14.82
2022-11-02T16:20:28.491Z,18.13
2022-11-02T16:23:02.120Z,13.75
2022-11-02T16:25:38.450Z,14.40
2022-11-02T16:28:21.976Z,19.60
2022-11-02T16:31:17.207Z,26.77
2022-11-02T16:33:54.539Z,27.05
2022-11-02T16:36:33.263Z,14.00
2022-11-02T16:39:22.629Z,21.58
2022-11-02T16:41:55.542Z,14.23
2022-11-02T16:44:31.279Z,17.42
2022-11-02T16:47:17.984Z,18.95
2022-11-02T16:49:51.337Z,16.88
2022-11-02T16:52:25.736Z,18.48
2022-11-02T16:54:53.175Z,20.48
2022-11-02T16:57:46.967Z,15.07
2022-11-02T17:00:20.871Z,13.82
2022-11-02T17:02:48.551Z,21.98
2022-11-02T17:05:22.874Z,18.30
2022-11-02T17:08:08.632Z,18.92
2022-11-02T17:10:38.588Z,22.75
2022-11-02T17:13:17.288Z,21.95
2022-11-02T17:15:51.335Z,17.38
2022-11-02T17:18:21.712Z,19.65
2022-11-02T17:21:09.038Z,21.42
2022-11-02T17:23:37.074Z,16.35
2022-11-02T17:26:24.976Z,15.57
2022-11-02T17:28:56.285Z,17.95
2022-11-02T17:31:35.586Z,16.70
2022-11-02T17:34:10.010Z,15.40
2022-11-02T17:36:44.761Z,22.65
2022-11-02T17:39:16.706Z,25.05
2022-11-02T17:42:04.661Z,48.38
2022-11-02T17:44:32.022Z,23.00
2022-11-02T17:46:59.608Z,16.23
2022-11-02T17:49:26.956Z,16.52
2022-11-02T17:51:54.365Z,19.77
2022-11-02T17:54:21.784Z,22.02
2022-11-02T17:56:49.119Z,21.33
2022-11-02T17:59:16.536Z,17.38
2022-11-02T18:01:44.102Z,20.38
2022-11-02T18:04:11.638Z,16.20
2022-11-02T18:06:39.012Z,18.73
2022-11-02T18:09:14.394Z,22.52
2022-11-02T18:11:41.834Z,22.60
2022-11-02T18:14:14.492Z,15.75
2022-11-02T18:16:41.898Z,15.70
2022-11-02T18:19:09.427Z,23.88
2022-11-02T18:21:36.867Z,19.90
2022-11-02T18:24:04.350Z,17.95
2022-11-02T18:26:31.755Z,18.90
2022-11-02T18:28:59.160Z,22.80
2022-11-02T18:31:26.553Z,23.17
2022-11-02T18:33:53.903Z,22.35
2022-11-02T18:36:21.340Z,15.18
2022-11-02T18:38:48.701Z,14.60
2022-11-02T18:41:34.801Z,23.10
2022-11-02T18:44:08.901Z,16.02
2022-11-02T18:46:39.250Z,19.90
2022-11-02T18:49:06.670Z,16.52
2022-11-02T18:51:34.088Z,16.92
2022-11-02T18:54:04.262Z,20.90
2022-11-02T18:56:31.956Z,23.52
2022-11-02T18:58:59.861Z,16.83
2022-11-02T19:01:28.183Z,13.27
2022-11-02T19:03:58.224Z,24.13
2022-11-02T19:06:45.978Z,17.33
2022-11-02T19:09:21.511Z,30.95
2022-11-02T19:12:05.093Z,21.48
2022-11-02T19:14:38.161Z,19.00
2022-11-02T19:17:06.758Z,17.25
2022-11-02T19:19:34.964Z,22.13
2022-11-02T19:22:02.868Z,18.48
2022-11-02T19:24:30.216Z,20.95
2022-11-02T19:26:57.826Z,14.63
2022-11-02T19:29:25.328Z,17.42
2022-11-02T19:31:52.807Z,21.08
2022-11-02T19:34:20.147Z,21.13
2022-11-02T19:36:47.501Z,16.13
2022-11-02T19:39:14.829Z,35.35
2022-11-02T19:41:42.231Z,19.75
2022-11-02T19:44:09.585Z,23.75
2022-11-02T19:46:37.071Z,24.70
2022-11-02T19:49:04.475Z,17.85
2022-11-02T19:51:32.171Z,21.33
2022-11-02T19:54:01.909Z,25.35
2022-11-02T19:56:31.725Z,20.10
2022-11-02T19:58:59.667Z,18.38
2022-11-02T20:01:38.201Z,19.08
2022-11-02T20:04:06.576Z,25.60
2022-11-02T20:06:39.522Z,18.38
2022-11-02T20:09:10.311Z,20.45
2022-11-02T20:11:39.764Z,23.35
2022-11-02T20:14:07.350Z,23.00
2022-11-02T20:16:34.684Z,18.35
2022-11-02T20:19:02.423Z,14.18
2022-11-02T20:21:34.458Z,14.68
2022-11-02T20:24:04.597Z,12.10
2022-11-02T20:26:34.571Z,14.57
2022-11-02T20:29:03.581Z,14.82
2022-11-02T20:31:33.943Z,8.73
2022-11-02T20:34:01.971Z,9.82
2022-11-02T20:36:29.491Z,5.93
2022-11-02T20:38:57.864Z,19.95
2022-11-02T20:41:26.593Z,13.52
2022-11-02T20:43:55.644Z,13.45
2022-11-02T20:46:47.448Z,12.20
2022-11-02T20:49:48.688Z,22.75
2022-11-02T20:52:03.282Z,12.48
2022-11-02T20:54:30.611Z,13.27
2022-11-02T20:56:58.153Z,17.60
2022-11-02T20:59:25.787Z,23.25
2022-11-02T21:01:53.407Z,19.50
2022-11-02T21:04:21.835Z,22.13
2022-11-02T21:06:50.187Z,17.02
2022-11-02T21:09:18.504Z,14.20
2022-11-02T21:12:04.393Z,20.90
2022-11-02T21:14:31.885Z,22.83
2022-11-02T21:16:59.260Z,14.57
2022-11-02T21:19:26.617Z,25.85
2022-11-02T21:21:59.341Z,15.43
2022-11-02T21:24:28.330Z,22.27
2022-11-02T21:27:06.731Z,21.05
2022-11-02T21:29:34.947Z,26.08
2022-11-02T21:32:02.336Z,25.17
2022-11-02T21:34:29.696Z,31.30
2022-11-02T21:36:57.082Z,28.75
2022-11-02T21:39:24.528Z,25.48
2022-11-02T21:41:51.923Z,18.02
2022-11-02T21:44:19.320Z,10.35
2022-11-02T21:46:46.711Z,3.60
2022-11-02T21:49:14.156Z,3.15
2022-11-02T21:51:42.858Z,4.30
2022-11-02T21:54:10.525Z,3.58
2022-11-02T21:56:38.304Z,6.85
2022-11-02T21:59:06.230Z,3.47
2022-11-02T22:01:49.253Z,5.05
2022-11-02T22:04:31.952Z,4.75
2022-11-02T22:07:00.189Z,5.43
2022-11-02T22:09:28.824Z,5.35
2022-11-02T22:12:15.441Z,6.03
2022-11-02T22:14:44.596Z,6.47
2022-11-02T22:17:16.870Z,4.45
2022-11-02T22:19:50.667Z,9.05
2022-11-02T22:22:18.663Z,8.75
2022-11-02T22:24:46.087Z,10.20
2022-11-02T22:27:13.498Z,7.57
2022-11-02T22:29:40.797Z,9.40
2022-11-02T22:32:08.154Z,6.70
2022-11-02T22:34:35.539Z,14.38
2022-11-02T22:37:21.630Z,7.18
2022-11-02T22:39:50.660Z,3.55
2022-11-02T22:42:19.038Z,6.82
2022-11-02T22:44:46.413Z,9.15
2022-11-02T22:47:13.813Z,4.93
2022-11-02T22:49:41.322Z,5.72
2022-11-02T22:52:08.688Z,6.72
2022-11-02T22:54:36.105Z,5.40
2022-11-02T22:57:03.473Z,4.38
2022-11-02T22:59:30.864Z,5.15
2022-11-02T23:01:58.325Z,6.47
2022-11-02T23:04:25.804Z,8.90
2022-11-02T23:06:53.189Z,11.02
2022-11-02T23:09:21.577Z,9.48
2022-11-02T23:11:49.006Z,8.40
2022-11-02T23:14:17.136Z,15.35
2022-11-02T23:16:47.066Z,9.77
2022-11-02T23:19:25.242Z,13.40
2022-11-02T23:22:32.286Z,10.32
2022-11-02T23:25:19.732Z,8.18
2022-11-02T23:28:16.638Z,8.75
2022-11-02T23:31:02.890Z,5.50
2022-11-02T23:33:32.323Z,5.85
2022-11-02T23:36:13.774Z,8.25
2022-11-02T23:39:00.987Z,3.85
2022-11-02T23:41:29.543Z,4.00
2022-11-02T23:44:11.937Z,2.72
2022-11-02T23:46:48.651Z,4.60
2022-11-02T23:49:17.367Z,4.75
2022-11-02T23:52:03.350Z,4.72
2022-11-02T23:54:49.337Z,6.68
2022-11-02T23:57:16.775Z,3.85
2022-11-02T23:59:44.144Z,5.30
